CheckWX is a tool to help pilots better visualize weather data.  It is not intended as a substitute for an official pre-flight weather briefing.

03:11:31 UTC

GQPP METAR
Nouadhibou International Airport
Nouadhibou, Mauritania
Current

12 mins ago

GQPP 260300Z 01013KT 7000 NSC 18/16 Q1011 NOSIG
Observed
May-26 @ 03:00 UTC
Wind
  • 010° at 13 KTS
Visibility
7,001 meters
Flight Rules
MVFR
Cloud Levels
  • Clear skies
Temperature
18°C / 64°F
Dewpoint
16°C / 61°F
Humidity
88%
Altimeter
29.85" Hg
Pressure
1010.92 hPa
Previous

1 hour ago

GQPP 260200Z 01012KT 7000 NSC 18/16 Q1012 NOSIG
Observed
May-26 @ 02:00 UTC
Wind
  • 010° at 12 KTS
Visibility
7,001 meters
Flight Rules
MVFR
Cloud Levels
  • Clear skies
Temperature
18°C / 64°F
Dewpoint
16°C / 61°F
Humidity
88%
Altimeter
29.88" Hg
Pressure
1011.92 hPa
Previous

2 hours ago

GQPP 260100Z 01012KT 7000 NSC 18/16 Q1012 NOSIG
Observed
May-26 @ 01:00 UTC
Wind
  • 010° at 12 KTS
Visibility
7,001 meters
Flight Rules
MVFR
Cloud Levels
  • Clear skies
Temperature
18°C / 64°F
Dewpoint
16°C / 61°F
Humidity
88%
Altimeter
29.88" Hg
Pressure
1011.92 hPa